This is the latest recevied weather packets stored in our database for station/object KF7IOR. If no packets are shown the sender has not sent any weather packets the latest 10 day(s).
| Time | Temp. | Humidity | Pressure | Rain* | Wind** | Luminosity | Snow |
|---|---|---|---|---|---|---|---|
| 1778200535 | 22.78° C | 34% | 1016 hPa | 0 mm | - | 394 W/m² | - |
| 1778200248 | 22.78° C | 34% | 1016 hPa | 0 mm | - | 434 W/m² | - |
| 1778199634 | 22.78° C | 32% | 1016.2 hPa | 0 mm | - | 418 W/m² | - |
| 1778191835 | 21.11° C | 43% | 1017.3 hPa | 0 mm | - | 744 W/m² | - |
| 1778189135 | 20.56° C | 46% | 1017.9 hPa | 0 mm | - | 817 W/m² | - |
| 1778187037 | 19.44° C | 48% | 1018.5 hPa | 0 mm | - | 831 W/m² | - |
| 1778186434 | 20° C | 44% | 1018.6 hPa | 0 mm | - | 772 W/m² | - |
| 1778186136 | 20° C | 44% | 1018.7 hPa | 0 mm | - | 777 W/m² | - |
| 1778184053 | 18.33° C | 50% | 1019.1 hPa | 0 mm | - | 594 W/m² | - |
| 1778182536 | 17.22° C | 51% | 1019.5 hPa | 0 mm | - | 795 W/m² | - |
| 1778178336 | 16.11° C | 56% | 1020.1 hPa | 0 mm | - | 708 W/m² | - |
| 1778178035 | 16.11° C | 59% | 1020.2 hPa | 0 mm | - | 710 W/m² | - |
| 1778175052 | 14.44° C | 62% | 1020.6 hPa | 0 mm | - | 640 W/m² | - |
| 1778174736 | 14.44° C | 62% | 1020.6 hPa | 0 mm | - | 624 W/m² | - |
| 1778173252 | 13.89° C | 64% | 1020.7 hPa | 0 mm | - | 577 W/m² | - |
| 1778169934 | 12.22° C | 69% | 1020.9 hPa | 0 mm | - | 285 W/m² | - |
| 1778169334 | 11.67° C | 69% | 1020.8 hPa | 0 mm | - | 221 W/m² | - |
| 1778166336 | 11.11° C | 71% | 1020.9 hPa | 0 mm | - | 102 W/m² | - |
| 1778165736 | 11.11° C | 71% | 1020.9 hPa | 0 mm | - | 90 W/m² | - |
| 1778164836 | 11.11° C | 70% | 1020.8 hPa | 0 mm | - | 77 W/m² | - |
| 1778163640 | 11.11° C | 73% | 1020.7 hPa | 0 mm | - | 62 W/m² | - |
| 1778163034 | 11.11° C | 73% | 1020.7 hPa | 0 mm | - | 46 W/m² | - |
| 1778162135 | 11.11° C | 73% | 1020.5 hPa | 0 mm | - | 37 W/m² | - |
| 1778161553 | 11.11° C | 73% | 1020.4 hPa | 0 mm | - | 30 W/m² | - |
| 1778159436 | 10.56° C | 73% | 1020.3 hPa | 0 mm | - | 0 W/m² | - |
* Rain latest hour (hover to see other rain measurements)
** Current wind speed in m/s (hover to see current wind gust speed)